Latest Weather Observations for Hopetoun North

IDW60801

Issued at 9:02 am WST Monday 22 December 2014 (issued every 30 minutes, with the page automatically refreshed every 10 minutes)

About weather observations | Map of weather stations | Latest weather observations for WA | Other Formats
Station Details ID: 009961 Name: HOPETOUN NORTH Lat: -33.93 Lon: 120.13 Height: 26.0 m
Data from the previous 72 hours. | See also: Recent months at Hopetoun North
Date/Time
WST
Temp
°C
App
Temp
°C
Dew
Point
Rel
Hum
%
Delta-T
°C
Wind Press
QNH
hPa
Press
MSL
hPa
Rain
since 9 am
mm
Dir
 
Spd
km/h
Gust
km/h
Spd
kts
Gust
kts
22/09:00am 17.5 15.3 13.2 76 2.4 S 17 24 9 13 1019.1 1019.0 1.2
22/08:30am 16.9 15.2 13.6 81 1.9 SSW 15 20 8 11 1019.0 1018.9 1.2
22/08:00am 16.2 14.9 13.7 85 1.4 S 13 20 7 11 1019.0 1018.9 1.2
22/07:30am 16.0 16.4 14.7 92 0.7 SSE 6 15 3 8 1018.9 1018.8 1.2
22/07:00am 16.0 17.9 15.8 99 0.1 CALM 0 0 0 0 1018.7 1018.6 1.2
22/06:30am 16.0 17.2 15.8 99 0.1 NW 4 6 2 3 1018.3 1018.2 0.6
22/06:00am 16.0 16.8 15.8 99 0.1 N 6 6 3 3 1017.9 1017.8 0.4
22/05:30am 15.9 17.0 15.7 99 0.1 NNW 4 4 2 2 1017.7 1017.6 0.4
22/05:00am 15.8 16.9 15.6 99 0.1 N 4 6 2 3 1017.6 1017.5 0.4
22/04:30am 15.9 17.0 15.7 99 0.1 N 4 4 2 2 1017.4 1017.3 0.4
22/04:00am 15.9 17.4 15.7 99 0.1 N 2 4 1 2 1017.1 1017.0 0.4
22/03:30am 16.1 16.9 15.8 98 0.2 N 6 6 3 3 1017.0 1016.9 0.4
22/03:00am 16.1 16.8 15.5 96 0.3 NNE 6 7 3 4 1016.9 1016.8 0.4
22/02:30am 16.1 16.8 15.6 97 0.3 NNE 6 6 3 3 1017.0 1016.9 0.4
22/02:00am 16.1 17.6 15.6 97 0.3 E 2 6 1 3 1017.3 1017.2 0.4
22/01:30am 16.0 17.2 15.8 99 0.1 N 4 6 2 3 1017.5 1017.4 0.4
22/01:00am 16.0 17.1 15.7 98 0.2 NNE 4 6 2 3 1017.8 1017.7 0.4
22/12:30am 16.3 17.4 15.5 95 0.5 NE 4 7 2 4 1018.0 1017.9 0.4
22/12:00am 16.5 16.9 15.4 93 0.6 ESE 7 11 4 6 1018.2 1018.1 0.4
 
Date/Time
WST
Temp
°C
App
Temp
°C
Dew
Point
Rel
Hum
%
Delta-T
°C
Wind Press
QNH
hPa
Press
MSL
hPa
Rain
since 9 am
mm
Dir
 
Spd
km/h
Gust
km/h
Spd
kts
Gust
kts
21/11:30pm 16.3 17.0 15.7 96 0.4 ESE 6 9 3 5 1018.5 1018.4 0.4
21/11:00pm 16.5 16.8 15.9 96 0.4 ESE 9 15 5 8 1018.9 1018.8 0.4
21/10:30pm 16.8 16.2 15.7 93 0.6 SE 13 19 7 10 1018.9 1018.8 0.4
21/10:00pm 16.9 15.4 15.4 91 0.9 SSE 17 24 9 13 1018.9 1018.8 0.4
21/09:30pm 17.0 16.3 15.5 91 0.9 SSE 13 19 7 10 1018.8 1018.7 0.4
21/09:00pm 16.9 16.0 15.9 94 0.6 SSE 15 22 8 12 1018.7 1018.6 0.4
21/08:30pm 17.1 16.6 15.8 92 0.8 SSE 13 19 7 10 1018.6 1018.5 0.4
21/08:00pm 17.2 15.9 15.7 91 0.9 S 17 24 9 13 1018.4 1018.3 0.4
21/07:30pm 17.3 15.8 16.2 93 0.7 S 19 24 10 13 1018.3 1018.2 0.4
21/07:00pm 17.6 16.0 16.1 91 0.9 SSE 19 26 10 14 1017.9 1017.8 0.4
21/06:30pm 17.5 16.7 16.2 92 0.8 SE 15 24 8 13 1017.7 1017.6 0.4
21/06:00pm 17.6 16.2 15.6 88 1.2 SSE 17 22 9 12 1017.6 1017.5 0.4
21/05:30pm 17.4 16.4 15.7 90 1.0 SSE 15 22 8 12 1017.6 1017.5 0.4
21/05:00pm 18.0 16.7 15.8 87 1.3 S 17 26 9 14 1017.3 1017.2 0.4
21/04:30pm 18.3 16.7 16.1 87 1.3 SSE 19 26 10 14 1017.2 1017.1 0.4
21/04:00pm 18.0 16.5 16.3 90 1.0 SSE 19 28 10 15 1017.2 1017.1 0.4
21/03:30pm 17.7 16.0 15.7 88 1.2 S 19 24 10 13 1017.5 1017.4 0.4
21/03:00pm 18.3 17.2 16.3 88 1.2 SSE 17 22 9 12 1017.4 1017.3 0.4
21/02:30pm 17.6 16.2 16.6 94 0.6 SSE 19 24 10 13 1017.5 1017.4 0.4
21/02:00pm 18.4 17.2 16.2 87 1.3 SSE 17 26 9 14 1017.4 1017.3 0.4
21/01:30pm 18.3 16.6 16.3 88 1.2 SSE 20 28 11 15 1017.3 1017.2 0.4
21/01:00pm 18.1 16.4 16.3 89 1.1 SSE 20 30 11 16 1017.3 1017.2 0.4
21/12:30pm 18.6 17.3 17.3 92 0.8 SSE 20 32 11 17 1017.4 1017.3 0.4
21/12:00pm 18.4 16.7 17.1 92 0.8 SSE 22 32 12 17 1017.5 1017.4 0.4
21/11:30am 18.2 16.5 17.2 94 0.6 SSE 22 32 12 17 1017.6 1017.5 0.4
21/11:00am 18.2 16.8 17.9 98 0.2 SSE 22 30 12 16 1017.7 1017.6 0.4
21/10:30am 17.5 16.3 17.5 100 0.0 SE 20 28 11 15 1017.9 1017.8 0.4
21/10:00am 16.7 14.4 16.7 100 0.0 SSE 24 33 13 18 1017.9 1017.8 0.4
21/09:30am 16.8 14.6 16.8 100 0.0 SSE 24 35 13 19 1017.9 1017.8 0.2
21/09:00am 16.8 14.6 16.8 100 0.0 SSE 24 35 13 19 1017.7 1017.6 46.0
21/08:30am 17.0 15.6 17.0 100 0.0 SSE 20 32 11 17 1017.6 1017.5 45.4
21/08:00am 16.9 15.6 16.9 100 0.0 SSE 19 30 10 16 1017.4 1017.3 45.4
21/07:30am 16.6 13.9 16.6 100 0.0 SSE 26 37 14 20 1017.1 1017.0 45.2
21/07:00am 16.6 14.3 16.6 100 0.0 SSE 24 41 13 22 1016.9 1016.8 42.8
21/06:30am 16.7 14.0 16.7 100 0.0 S 26 39 14 21 1016.5 1016.4 40.0
21/06:00am 16.9 13.6 16.9 100 0.0 S 30 39 16 21 1015.9 1015.8 37.6
21/05:30am 16.9 13.9 16.9 100 0.0 SSE 28 39 15 21 1015.5 1015.4 36.2
21/05:00am 17.1 15.4 17.1 100 0.0 SSE 22 35 12 19 1015.0 1015.0 34.8
21/04:30am 17.0 15.6 17.0 100 0.0 SSE 20 28 11 15 1014.6 1014.6 33.4
21/04:00am 16.6 13.9 16.6 100 0.0 SSE 26 35 14 19 1014.2 1014.2 31.8
21/03:30am 16.8 14.6 16.8 100 0.0 SSE 24 35 13 19 1013.9 1013.9 28.6
21/03:00am 16.8 14.2 16.8 100 0.0 SE 26 39 14 21 1013.5 1013.5 26.6
21/02:30am 17.0 14.5 17.0 100 0.0 SE 26 39 14 21 1013.3 1013.3 26.2
21/02:13am 16.9 13.6 16.9 100 0.0 SSE 30 48 16 26 1013.3 1013.3 25.8
21/02:00am 16.9 13.0 16.9 100 0.0 SSE 33 46 18 25 1013.2 1013.2 25.6
21/01:57am 16.9 13.0 16.9 100 0.0 SSE 33 46 18 25 1013.2 1013.2 25.4
21/01:30am 17.6 16.6 17.6 100 0.0 S 19 28 10 15 1013.3 1013.3 24.2
21/01:00am 17.3 16.0 17.3 100 0.0 SSE 20 30 11 16 1013.4 1013.4 21.0
21/12:30am 17.6 16.6 17.6 100 0.0 SSE 19 28 10 15 1013.2 1013.2 18.4
21/12:00am 17.6 17.0 17.6 100 0.0 SSE 17 28 9 15 1013.2 1013.2 17.4
 
Date/Time
WST
Temp
°C
App
Temp
°C
Dew
Point
Rel
Hum
%
Delta-T
°C
Wind Press
QNH
hPa
Press
MSL
hPa
Rain
since 9 am
mm
Dir
 
Spd
km/h
Gust
km/h
Spd
kts
Gust
kts
20/11:30pm 17.7 17.2 17.7 100 0.0 SSE 17 24 9 13 1013.1 1013.1 16.8
20/11:00pm 17.8 17.7 17.8 100 0.0 SE 15 22 8 12 1013.1 1013.1 16.6
20/10:30pm 17.9 18.2 17.9 100 0.0 SE 13 22 7 12 1013.1 1013.1 16.6
20/10:00pm 18.4 18.0 18.1 98 0.2 SSE 17 26 9 14 1012.8 1012.8 16.4
20/09:30pm 18.7 18.3 18.0 96 0.4 SSE 17 22 9 12 1012.6 1012.6 16.4
20/09:00pm 18.7 18.5 18.4 98 0.2 SSE 17 24 9 13 1012.5 1012.5 16.4
20/08:30pm 18.7 18.8 18.4 98 0.2 SSE 15 20 8 11 1012.1 1012.1 16.4
20/08:00pm 18.5 18.2 18.2 98 0.2 SSE 17 24 9 13 1011.8 1011.8 16.4
20/07:30pm 18.3 18.4 18.3 100 0.0 SE 15 22 8 12 1011.7 1011.7 16.4
20/07:00pm 18.4 18.9 18.4 100 0.0 SE 13 20 7 11 1011.5 1011.5 16.4
20/06:30pm 18.7 17.9 18.5 99 0.1 SSE 20 26 11 14 1011.1 1011.1 16.2
20/06:00pm 19.0 19.6 18.5 97 0.3 S 13 20 7 11 1010.8 1010.8 16.2
20/05:30pm 19.1 19.1 18.1 94 0.6 SSE 15 24 8 13 1010.1 1010.1 16.2
20/05:00pm 19.4 19.8 18.2 93 0.7 SSE 13 17 7 9 1009.6 1009.6 16.2
20/04:30pm 19.9 20.2 18.7 93 0.7 S 15 20 8 11 1009.2 1009.2 16.2
20/04:00pm 19.3 18.9 18.8 97 0.3 S 19 24 10 13 1009.2 1009.2 16.2
20/03:30pm 19.1 18.7 18.8 98 0.2 S 19 28 10 15 1008.6 1008.6 16.2
20/03:00pm 18.7 17.6 18.7 100 0.0 S 22 30 12 16 1008.1 1008.1 16.2
20/02:30pm 19.1 18.2 19.1 100 0.0 S 22 30 12 16 1007.8 1007.8 16.2
20/02:00pm 18.4 18.5 18.4 100 0.0 SSE 15 24 8 13 1008.1 1008.1 15.8
20/01:30pm 18.9 18.2 18.7 99 0.1 S 20 32 11 17 1007.7 1007.7 9.6
20/01:00pm 18.8 18.7 18.8 100 0.0 SE 17 26 9 14 1007.5 1007.5 9.6
20/12:30pm 18.6 20.0 18.6 100 0.0 W 9 15 5 8 1007.4 1007.4 9.0
20/12:00pm 18.5 19.4 18.5 100 0.0 SE 11 19 6 10 1007.5 1007.5 8.0
20/11:30am 18.5 17.3 18.5 100 0.0 ESE 22 32 12 17 1006.1 1006.1 2.6
20/11:00am 19.5 19.1 18.0 91 0.9 E 17 26 9 14 1007.8 1007.8 0.0
20/10:30am 20.2 18.8 17.0 82 1.9 ESE 20 32 11 17 1007.1 1007.1 0.0
20/10:00am 21.3 18.3 16.7 75 2.8 SE 28 35 15 19 1006.9 1006.9 0.0
20/09:30am 21.9 19.5 15.3 66 3.9 SSE 22 28 12 15 1007.2 1007.2 0.0
20/09:00am 22.9 21.3 13.9 57 5.3 SSE 15 19 8 10 1007.6 1007.6 0.0
20/08:30am 24.2 24.3 14.0 53 6.0 ENE 6 9 3 5 1007.9 1007.9 0.0
20/08:00am 21.7 22.4 14.4 63 4.3 NE 4 7 2 4 1008.6 1008.6 0.0
20/07:30am 18.4 18.2 13.1 71 3.0 NNE 6 6 3 3 1009.1 1009.1 0.0
20/07:00am 18.1 17.8 13.2 73 2.8 NE 7 9 4 5 1009.3 1009.3 0.0
20/06:30am 17.7 16.6 13.0 74 2.6 NE 11 19 6 10 1009.4 1009.4 0.0
20/06:00am 17.2 17.1 13.3 78 2.2 ENE 6 9 3 5 1009.6 1009.6 0.0
20/05:30am 16.3 16.3 13.6 84 1.5 ENE 6 9 3 5 1009.6 1009.6 0.0
20/05:00am 16.3 16.1 13.6 84 1.5 NE 7 9 4 5 1009.6 1009.6 0.0
20/04:30am 16.3 15.9 14.0 86 1.3 ENE 9 13 5 7 1009.6 1009.6 0.0
20/04:00am 16.1 16.1 14.3 89 1.0 NE 7 9 4 5 1009.6 1009.6 0.0
20/03:30am 16.6 16.9 14.6 88 1.1 NNE 6 9 3 5 1010.0 1010.0 0.0
20/03:00am 17.2 17.3 15.4 89 1.1 ENE 9 13 5 7 1009.6 1009.6 0.0
20/02:30am 17.3 18.3 16.3 94 0.6 ENE 6 7 3 4 1010.0 1010.0 0.0
20/02:00am 17.3 18.4 16.7 96 0.4 E 6 9 3 5 1010.0 1010.0 0.0
20/01:30am 18.0 17.6 17.2 95 0.5 ENE 15 20 8 11 1010.1 1010.1 0.0
20/01:00am 18.4 17.3 17.4 94 0.6 ENE 19 26 10 14 1010.1 1010.1 0.0
20/12:30am 18.8 18.0 18.1 96 0.4 E 19 26 10 14 1010.8 1010.8 0.0
20/12:00am 18.6 19.5 18.3 98 0.2 E 11 19 6 10 1011.9 1011.9 0.0
 
Date/Time
WST
Temp
°C
App
Temp
°C
Dew
Point
Rel
Hum
%
Delta-T
°C
Wind Press
QNH
hPa
Press
MSL
hPa
Rain
since 9 am
mm
Dir
 
Spd
km/h
Gust
km/h
Spd
kts
Gust
kts
19/11:30pm 18.6 18.7 18.3 98 0.2 E 15 24 8 13 1012.0 1012.0 0.0
19/11:00pm 18.7 19.1 18.2 97 0.3 E 13 20 7 11 1012.4 1012.4 0.0
19/10:30pm 18.7 18.4 17.4 92 0.8 E 15 20 8 11 1012.8 1012.8 0.0
19/10:00pm 18.7 18.6 17.0 90 1.0 E 13 20 7 11 1013.1 1013.1 0.0
19/09:30pm 18.6 17.8 16.0 85 1.5 E 15 20 8 11 1013.1 1013.1 0.0
19/09:00pm 18.8 18.1 16.4 86 1.4 E 15 22 8 12 1013.2 1013.2 0.0
19/08:30pm 18.8 18.3 16.8 88 1.2 E 15 24 8 13 1013.0 1013.0 0.0
19/08:00pm 19.0 17.8 17.1 89 1.2 E 19 32 10 17 1013.0 1013.0 0.0
19/07:30pm 19.2 17.9 17.3 89 1.2 E 20 33 11 18 1012.8 1012.8 0.0
19/07:00pm 19.5 18.0 17.8 90 1.0 E 22 35 12 19 1012.6 1012.6 0.0
19/06:30pm 20.0 18.2 17.8 87 1.4 E 24 39 13 21 1012.2 1012.2 0.0
19/06:00pm 20.5 17.8 17.5 83 1.8 E 28 39 15 21 1012.3 1012.3 0.0
19/05:30pm 20.9 17.8 17.5 81 2.1 ESE 30 43 16 23 1012.3 1012.3 0.0
19/05:00pm 21.4 17.9 17.4 78 2.5 ESE 32 43 17 23 1012.4 1012.4 0.0
19/04:30pm 22.1 19.5 17.9 77 2.6 ESE 28 39 15 21 1012.5 1012.5 0.0
19/04:00pm 22.3 19.5 17.2 73 3.1 ESE 28 41 15 22 1013.1 1013.1 0.0
19/03:30pm 22.4 19.0 16.7 70 3.5 ESE 30 39 16 21 1013.4 1013.4 0.0
19/03:00pm 22.6 18.9 16.9 70 3.5 ESE 32 41 17 22 1013.8 1013.8 0.0
19/02:30pm 23.1 20.5 16.9 68 3.8 ESE 26 39 14 21 1014.1 1014.1 0.0
19/02:00pm 22.8 19.4 16.8 69 3.7 SE 30 39 16 21 1014.5 1014.5 0.0
19/01:30pm 23.5 20.0 16.5 65 4.3 SE 30 39 16 21 1014.7 1014.7 0.0
19/01:00pm 23.4 20.4 16.7 66 4.1 SE 28 37 15 20 1015.3 1015.3 0.0
19/12:30pm 23.6 21.0 15.9 62 4.7 SE 24 32 13 17 1015.7 1015.6 0.0
19/12:00pm 23.2 20.0 15.3 61 4.7 SE 26 35 14 19 1016.2 1016.1 0.0
19/11:30am 23.6 20.3 15.1 59 5.1 SE 26 32 14 17 1016.6 1016.5 0.0
19/11:00am 23.2 21.2 15.5 62 4.6 SE 20 28 11 15 1017.0 1016.9 0.0
19/10:30am 22.2 19.9 14.6 62 4.5 SE 20 28 11 15 1017.4 1017.3 0.0
19/10:00am 21.9 19.5 14.3 62 4.4 SE 20 28 11 15 1017.6 1017.5 0.0
19/09:30am 22.3 20.2 13.6 58 5.0 SE 17 22 9 12 1017.9 1017.8 0.0

Other Formats:

Comma delimited format used in spreadsheet applications
http://www.bom.gov.au/fwo/IDW60801/IDW60801.95635.axf

JavaScript Object Notation format (JSON) in row-major order
http://www.bom.gov.au/fwo/IDW60801/IDW60801.95635.json